Terminal Aerodrome Forecast
Issued by NWS

Home | Current Version | Previous Version | Text Only | Print | Product List | Glossary On
Versions: 1 2 3 4 5 6 7 8 9 10 11 12 13 14 15 16 17 18 19 20 21 22 23 24 25 26 27 28 29 30 31 32 33 34 35
689
FTUS43 KDTX 022326
TAFPTK
TAF
KPTK 022326Z 0300/0324 VRB04KT P6SM BKN035
     FM030200 01003KT P6SM SCT200
     FM030800 VRB02KT 3SM BR SCT250
     FM031200 VRB04KT P6SM SKC
     FM031600 29005KT P6SM SCT045
     FM031800 20005KT P6SM BKN050=

USA.gov is the U.S. government's official web portal to all federal, state and local government web resources and services.